Time;durP1;ratioP1;P1;durP2;ratioP2;P2;SDS_P1;SDS_P2;PMS_P1;PMS_P2;Temp;Humidity;BMP_temperature;BMP_pressure;BME280_temperature;BME280_humidity;BME280_pressure;Samples;Min_cycle;Max_cycle;Signal;HPM_P1;HPM_P2
2023/10/12 00:02:09;;;;;;;1.27;1.27;;;;;;;8.72;nan;60538.53;5032010;28;20229;-65
2023/10/12 00:04:43;;;;;;;1.30;1.20;;;;;;;8.86;nan;60442.19;5031920;28;20258;-68
2023/10/12 00:07:33;;;;;;;1.67;1.57;;;;;;;8.83;nan;60444.47;5032089;28;20254;-66
2023/10/12 00:12:59;;;;;;;1.90;1.30;;;;;;;8.63;nan;60501.00;5026520;28;20317;-67
2023/10/12 00:15:25;;;;;;;1.20;1.20;;;;;;;8.71;nan;60356.66;5030443;28;20248;-67
2023/10/12 00:17:53;;;;;;;2.30;1.43;;;;;;;8.40;nan;60330.19;5031816;28;20176;-67
2023/10/12 00:23:10;;;;;;;1.30;1.20;;;;;;;8.48;nan;60458.19;5031864;28;20531;-66
2023/10/12 00:25:54;;;;;;;0.80;0.80;;;;;;;8.16;nan;60384.72;5031991;28;20167;-67
2023/10/12 00:28:21;;;;;;;1.27;1.17;;;;;;;8.29;nan;60322.97;5032164;28;20642;-66
2023/10/12 00:30:49;;;;;;;1.10;1.07;;;;;;;8.26;nan;60312.53;5031765;28;20204;-67
2023/10/12 00:33:17;;;;;;;1.20;1.10;;;;;;;8.33;nan;60360.53;5031695;28;20207;-67
2023/10/12 00:36:00;;;;;;;1.27;1.20;;;;;;;8.22;nan;60312.59;5031922;28;20175;-66
2023/10/12 00:38:29;;;;;;;1.10;1.10;;;;;;;8.24;nan;60213.06;5031711;28;20183;-66
2023/10/12 00:41:07;;;;;;;1.40;1.30;;;;;;;8.20;nan;60087.09;5031526;28;20701;-66
2023/10/12 00:43:39;;;;;;;1.43;1.30;;;;;;;7.99;nan;60073.88;5031389;28;20781;-67
2023/10/12 00:46:20;;;;;;;1.50;1.40;;;;;;;8.16;nan;60041.41;5031443;28;20661;-67
2023/10/12 00:48:58;;;;;;;1.00;1.00;;;;;;;7.94;nan;59954.47;5031458;28;20174;-66
2023/10/12 00:51:23;;;;;;;1.30;1.20;;;;;;;8.04;nan;59918.72;5031240;28;20555;-66
2023/10/12 00:53:58;;;;;;;1.50;1.40;;;;;;;7.90;nan;59995.22;5031187;28;20199;-66
2023/10/12 00:56:26;;;;;;;1.20;1.20;;;;;;;8.06;nan;60144.69;5031369;28;20254;-68
2023/10/12 00:58:54;;;;;;;1.27;1.17;;;;;;;7.99;nan;59934.06;5031222;28;20182;-65
2023/10/12 01:01:20;;;;;;;1.50;1.40;;;;;;;7.73;nan;59908.25;5030292;28;20725;-67
2023/10/12 01:03:46;;;;;;;1.83;1.73;;;;;;;7.94;nan;59840.06;5031443;28;20290;-66
2023/10/12 01:08:46;;;;;;;1.10;1.10;;;;;;;8.10;nan;59823.66;5031303;28;20263;-66
2023/10/12 01:11:26;;;;;;;1.20;1.10;;;;;;;8.18;nan;59919.56;5031794;28;20693;-67
2023/10/12 01:16:54;;;;;;;1.33;1.27;;;;;;;8.07;nan;59942.38;5035109;28;20186;-66
2023/10/12 01:19:21;;;;;;;1.53;1.43;;;;;;;8.10;nan;59905.59;5035073;28;20179;-67
2023/10/12 01:21:51;;;;;;;1.60;1.50;;;;;;;8.04;nan;59855.72;5034917;28;20164;-67
2023/10/12 01:24:16;;;;;;;1.00;1.00;;;;;;;8.08;nan;59781.31;5035029;28;20638;-67
2023/10/12 01:26:44;;;;;;;2.13;1.93;;;;;;;7.94;nan;59847.69;5035025;28;20176;-68
2023/10/12 01:29:19;;;;;;;2.03;1.40;;;;;;;7.91;nan;59768.09;5034371;28;20552;-66
2023/10/12 01:31:50;;;;;;;1.00;1.00;;;;;;;7.97;nan;59751.88;5034836;28;20309;-67
2023/10/12 01:34:17;;;;;;;1.17;1.17;;;;;;;7.91;nan;59643.56;5034604;28;20248;-66
2023/10/12 01:36:43;;;;;;;1.60;1.50;;;;;;;7.80;nan;59862.66;5034738;28;20541;-67
2023/10/12 01:39:14;;;;;;;1.40;1.30;;;;;;;7.68;nan;59815.72;5034599;28;20657;-68
2023/10/12 01:41:43;;;;;;;1.17;1.17;;;;;;;7.87;nan;59821.56;5034237;28;20611;-66
2023/10/12 01:44:12;;;;;;;1.30;1.20;;;;;;;7.87;nan;59811.97;5034517;28;20167;-66
2023/10/12 01:46:41;;;;;;;1.50;1.40;;;;;;;7.80;nan;59770.59;5034568;28;20171;-67
2023/10/12 01:49:08;;;;;;;1.53;1.43;;;;;;;7.60;nan;59809.97;5034458;28;20167;-67
2023/10/12 01:51:42;;;;;;;1.27;1.20;;;;;;;7.45;nan;59732.34;5034249;28;20183;-66
2023/10/12 01:54:12;;;;;;;1.50;1.40;;;;;;;7.65;nan;59652.91;5034297;28;20191;-65
2023/10/12 01:56:38;;;;;;;1.60;1.50;;;;;;;7.80;nan;59790.94;5034218;28;20174;-66
2023/10/12 01:59:07;;;;;;;1.80;1.63;;;;;;;7.64;nan;59702.59;5034027;28;20616;-66
2023/10/12 02:01:41;;;;;;;1.17;1.07;;;;;;;7.73;nan;59626.16;5034320;28;20171;-66
2023/10/12 02:04:07;;;;;;;1.27;1.17;;;;;;;7.48;nan;59575.66;5034110;28;20242;-67
2023/10/12 02:06:32;;;;;;;1.20;1.20;;;;;;;7.48;nan;59512.72;5033912;28;20251;-66
2023/10/12 02:09:34;;;;;;;1.33;1.27;;;;;;;7.66;nan;59480.69;5033903;28;20187;-66
2023/10/12 02:11:57;;;;;;;1.30;1.20;;;;;;;7.69;nan;59497.25;5032553;28;20650;-67
2023/10/12 02:14:39;;;;;;;3.10;2.80;;;;;;;7.65;nan;59350.56;5033946;28;20294;-67
2023/10/12 02:17:05;;;;;;;1.33;1.27;;;;;;;7.55;nan;59213.09;5033861;28;20178;-66
2023/10/12 02:19:41;;;;;;;2.40;1.93;;;;;;;7.48;nan;59204.84;5033990;28;20291;-66
2023/10/12 02:22:19;;;;;;;1.30;1.20;;;;;;;7.39;nan;59151.78;5033506;28;20638;-66
2023/10/12 02:24:51;;;;;;;1.07;1.03;;;;;;;7.38;nan;58980.56;5033829;28;20163;-68
2023/10/12 02:27:17;;;;;;;1.47;1.37;;;;;;;7.34;nan;58803.53;5033989;28;20229;-67
2023/10/12 02:29:48;;;;;;;1.10;1.10;;;;;;;7.17;nan;58475.88;5032031;28;20215;-68
2023/10/12 02:32:23;;;;;;;1.40;1.30;;;;;;;7.41;nan;58359.25;5032341;28;20179;-64
2023/10/12 02:34:59;;;;;;;1.33;1.23;;;;;;;7.34;nan;58168.91;5033694;28;20205;-65
2023/10/12 02:37:27;;;;;;;1.70;1.60;;;;;;;7.48;nan;58176.97;5033553;28;20160;-66
2023/10/12 02:39:54;;;;;;;1.17;1.10;;;;;;;7.48;nan;58153.59;5033495;28;20176;-68
2023/10/12 02:42:38;;;;;;;1.10;1.10;;;;;;;7.22;nan;57960.50;5033317;28;20176;-65
2023/10/12 02:47:40;;;;;;;1.47;1.37;;;;;;;7.20;nan;57743.22;5033410;28;20163;-67
2023/10/12 02:52:34;;;;;;;1.73;1.63;;;;;;;7.44;nan;57314.66;5033071;28;20179;-67
2023/10/12 02:55:07;;;;;;;2.03;1.93;;;;;;;7.18;nan;57243.75;5033198;28;20602;-67
2023/10/12 02:57:33;;;;;;;1.70;1.60;;;;;;;7.30;nan;56667.94;5033217;28;20242;-67
2023/10/12 03:00:35;;;;;;;1.10;1.10;;;;;;;7.37;nan;56078.56;5033377;28;20263;-66
2023/10/12 03:02:53;;;;;;;2.47;1.53;;;;;;;7.12;nan;55971.28;5031784;28;20203;-66
2023/10/12 03:05:33;;;;;;;1.17;1.17;;;;;;;7.38;nan;55595.63;5033202;28;20541;-66
2023/10/12 03:08:06;;;;;;;1.47;1.37;;;;;;;7.26;nan;55286.44;5033060;28;20171;-68
2023/10/12 03:10:32;;;;;;;1.50;1.40;;;;;;;7.37;nan;54493.41;5033127;28;20179;-67
2023/10/12 03:13:04;;;;;;;1.50;1.40;;;;;;;7.44;nan;54648.16;5032934;28;20234;-67
2023/10/12 03:15:44;;;;;;;1.23;1.23;;;;;;;7.43;nan;55714.97;5032685;28;20167;-66
2023/10/12 03:18:13;;;;;;;1.63;1.53;;;;;;;7.52;nan;56277.00;5032833;28;20159;-66
2023/10/12 03:20:39;;;;;;;1.47;1.37;;;;;;;7.31;nan;56762.84;5032815;28;20163;-67
2023/10/12 03:23:16;;;;;;;1.40;1.30;;;;;;;7.44;nan;57119.25;5032065;28;20187;-67
2023/10/12 03:25:51;;;;;;;3.27;1.87;;;;;;;7.44;nan;57218.22;5032812;28;20178;-66
2023/10/12 03:28:29;;;;;;;1.20;1.20;;;;;;;7.35;nan;57010.16;5032617;28;20163;-67
2023/10/12 03:31:11;;;;;;;2.30;2.10;;;;;;;7.46;nan;57438.09;5032464;28;20262;-66
2023/10/12 03:33:39;;;;;;;3.93;2.27;;;;;;;7.18;nan;57263.53;5031863;28;20183;-65
2023/10/12 03:36:23;;;;;;;1.20;1.20;;;;;;;7.17;nan;57399.47;5032317;28;20175;-66
2023/10/12 03:42:10;;;;;;;1.60;1.50;;;;;;;7.19;nan;57371.69;5032347;28;20559;-67
2023/10/12 03:44:49;;;;;;;1.70;1.60;;;;;;;7.07;nan;57242.19;5032071;28;20611;-66
2023/10/12 03:47:15;;;;;;;1.30;1.30;;;;;;;7.22;nan;57247.50;5032212;28;20163;-66
2023/10/12 03:52:34;;;;;;;1.10;1.10;;;;;;;7.04;nan;57252.19;5032025;28;20168;-67
2023/10/12 03:57:36;;;;;;;1.03;1.03;;;;;;;6.98;nan;56885.16;5031485;28;20294;-67
2023/10/12 04:05:35;;;;;;;1.70;1.60;;;;;;;7.03;nan;56690.63;5032023;28;20615;-66
2023/10/12 04:08:19;;;;;;;1.33;1.23;;;;;;;6.86;nan;56611.81;5031790;28;20254;-64
2023/10/12 04:18:32;;;;;;;2.03;1.67;;;;;;;7.05;nan;55941.66;5031464;28;20233;-68
2023/10/12 04:20:58;;;;;;;1.80;1.30;;;;;;;6.80;nan;55821.78;5031487;28;20172;-68
2023/10/12 04:28:53;;;;;;;1.50;1.40;;;;;;;6.73;nan;54874.47;5031203;28;20175;-68
2023/10/12 04:31:33;;;;;;;1.33;1.23;;;;;;;6.84;nan;54748.94;5031217;28;20568;-67
2023/10/12 04:36:45;;;;;;;1.10;1.10;;;;;;;6.73;nan;53975.75;5030167;28;20186;-66
2023/10/12 04:39:24;;;;;;;1.10;1.10;;;;;;;7.04;nan;53249.56;5031629;28;20274;-70
2023/10/12 04:47:07;;;;;;;1.53;1.43;;;;;;;7.02;nan;54909.84;5034736;28;20254;-68
2023/10/12 04:57:30;;;;;;;1.30;1.20;;;;;;;7.68;nan;57182.31;5033533;28;20198;-68
2023/10/12 05:07:56;;;;;;;2.13;1.93;;;;;;;7.90;nan;58201.03;5015228;28;20230;-67
2023/10/12 05:10:28;;;;;;;2.07;1.97;;;;;;;7.78;nan;58244.47;5015198;28;20607;-66
2023/10/12 05:13:03;;;;;;;1.50;1.40;;;;;;;8.21;nan;58715.06;5014644;28;20224;-67
2023/10/12 05:15:39;;;;;;;1.70;1.60;;;;;;;8.13;nan;58856.31;5014565;28;20179;-69
2023/10/12 05:18:08;;;;;;;1.50;1.40;;;;;;;7.97;nan;58915.06;5015196;28;20176;-70
2023/10/12 05:20:34;;;;;;;1.50;1.40;;;;;;;7.98;nan;58931.97;5015094;28;20179;-67
2023/10/12 05:23:02;;;;;;;1.70;1.60;;;;;;;8.03;nan;59048.72;5014708;28;20198;-67
2023/10/12 05:25:38;;;;;;;1.60;1.50;;;;;;;8.11;nan;59067.66;5015096;28;20176;-67
2023/10/12 05:28:14;;;;;;;1.50;1.40;;;;;;;8.33;nan;59111.63;5015053;28;20669;-66
2023/10/12 05:31:28;;;;;;;1.73;1.40;;;;;;;8.42;nan;59244.13;5015148;28;20214;-67
2023/10/12 05:36:10;;;;;;;1.30;1.20;;;;;;;8.60;nan;59670.50;5031826;28;20766;-67
2023/10/12 05:38:48;;;;;;;1.73;1.63;;;;;;;8.85;nan;59749.09;5032742;28;20257;-68
2023/10/12 05:41:21;;;;;;;0.93;0.93;;;;;;;8.76;nan;59863.84;5029567;28;20273;-67
2023/10/12 05:43:47;;;;;;;1.93;1.77;;;;;;;8.99;nan;59934.13;5027967;28;20180;-65
2023/10/12 05:46:15;;;;;;;2.67;2.37;;;;;;;9.09;nan;59988.53;5028556;28;20553;-67
2023/10/12 05:48:52;;;;;;;3.03;1.90;;;;;;;9.23;nan;60175.34;5033986;28;20723;-67
2023/10/12 05:51:24;;;;;;;4.63;2.97;;;;;;;9.48;nan;60052.28;5033870;28;20577;-67
2023/10/12 05:54:02;;;;;;;1.00;1.00;;;;;;;9.45;nan;60152.88;5032266;28;20207;-68
2023/10/12 05:56:30;;;;;;;1.20;1.20;;;;;;;9.46;nan;60251.41;5032931;28;20266;-69
2023/10/12 05:58:55;;;;;;;1.40;1.30;;;;;;;9.55;nan;60162.03;5032855;28;20206;-68
2023/10/12 06:01:32;;;;;;;1.53;1.43;;;;;;;9.74;nan;60221.47;5032279;28;20670;-66
2023/10/12 06:03:58;;;;;;;1.63;1.53;;;;;;;9.62;nan;60304.38;5033254;28;20298;-68
2023/10/12 06:06:23;;;;;;;1.93;1.77;;;;;;;9.99;nan;60281.94;5033074;28;20190;-68
2023/10/12 06:08:52;;;;;;;1.37;1.23;;;;;;;9.94;nan;60357.44;5032404;28;20572;-66
2023/10/12 06:11:18;;;;;;;1.43;1.33;;;;;;;9.92;nan;60335.38;5031415;28;20292;-66
2023/10/12 06:13:44;;;;;;;1.17;1.13;;;;;;;10.31;nan;60306.94;5030873;28;20689;-66
2023/10/12 06:16:14;;;;;;;1.83;1.73;;;;;;;10.49;nan;60406.19;5032472;28;20264;-67
2023/10/12 06:18:44;;;;;;;2.40;1.45;;;;;;;10.58;nan;60369.75;5031928;28;20229;-67
2023/10/12 06:21:17;;;;;;;2.47;1.55;;;;;;;10.72;nan;60392.50;5032016;28;20183;-66
2023/10/12 06:23:44;;;;;;;3.03;1.38;;;;;;;10.82;nan;60618.78;5063701;28;20183;-65
2023/10/12 06:26:26;;;;;;;2.60;2.03;;;;;;;11.14;nan;60438.91;5030992;28;20180;-65
2023/10/12 06:28:54;;;;;;;2.15;1.65;;;;;;;11.45;nan;60665.34;5031720;28;20195;-64
2023/10/12 06:31:21;;;;;;;2.03;1.48;;;;;;;11.60;nan;60482.69;5032130;28;20210;-66
2023/10/12 06:33:48;;;;;;;1.17;1.17;;;;;;;11.66;nan;60645.41;5031926;28;20206;-64
2023/10/12 06:36:22;;;;;;;1.00;1.00;;;;;;;11.14;nan;61727.81;5032339;28;20522;-64
2023/10/12 06:39:02;;;;;;;1.75;1.65;;;;;;;11.95;nan;60590.97;5032097;28;20179;-65
2023/10/12 06:41:29;;;;;;;1.60;1.50;;;;;;;12.13;nan;60610.00;5032303;28;20182;-65
2023/10/12 06:43:57;;;;;;;1.15;1.10;;;;;;;12.62;nan;60710.50;5033539;28;20198;-66
2023/10/12 06:46:27;;;;;;;1.90;1.77;;;;;;;12.62;nan;60726.44;5033002;28;20175;-65
2023/10/12 06:49:00;;;;;;;2.33;1.88;;;;;;;12.45;nan;60789.31;5031691;28;20190;-64
2023/10/12 06:51:29;;;;;;;1.20;1.20;;;;;;;12.81;nan;60778.53;5033343;28;20700;-65
2023/10/12 06:54:07;;;;;;;1.00;1.00;;;;;;;12.94;nan;60733.63;5033205;28;20579;-65
2023/10/12 06:56:38;;;;;;;1.30;1.25;;;;;;;13.14;nan;60927.88;5033578;28;20167;-65
2023/10/12 06:59:21;;;;;;;1.77;1.67;;;;;;;13.08;nan;60889.78;5033179;28;20187;-64
2023/10/12 07:04:16;;;;;;;1.88;1.77;;;;;;;13.31;nan;60866.38;5033029;28;20187;-67
2023/10/12 07:07:00;;;;;;;1.15;0.90;;;;;;;13.42;nan;60876.19;5033114;28;20176;-65
2023/10/12 07:09:44;;;;;;;1.42;1.25;;;;;;;13.69;nan;60989.25;5033235;28;20176;-64
2023/10/12 07:12:14;;;;;;;2.05;1.52;;;;;;;13.59;nan;60974.88;5033106;28;20218;-64
2023/10/12 07:14:47;;;;;;;1.55;1.20;;;;;;;13.79;nan;60917.22;5032656;28;20199;-65
2023/10/12 07:17:14;;;;;;;1.42;1.25;;;;;;;14.12;nan;61057.69;5031672;28;20566;-64
2023/10/12 07:19:46;;;;;;;1.55;1.33;;;;;;;14.28;nan;60921.00;5032852;28;20201;-64
2023/10/12 07:22:15;;;;;;;1.67;1.48;;;;;;;14.35;nan;60933.44;5032978;28;20241;-64
2023/10/12 07:24:43;;;;;;;1.02;1.00;;;;;;;14.43;nan;61016.97;5032666;28;20179;-65
2023/10/12 07:27:17;;;;;;;2.05;1.67;;;;;;;14.57;nan;60979.34;5032358;28;20258;-65
2023/10/12 07:29:44;;;;;;;1.27;1.17;;;;;;;14.70;nan;60998.56;5032461;28;20163;-64
2023/10/12 07:35:31;;;;;;;2.30;1.30;;;;;;;15.11;nan;61097.63;5038785;28;20195;-64
2023/10/12 07:37:50;;;;;;;1.00;1.00;;;;;;;15.03;nan;61035.72;5031833;28;20210;-65
2023/10/12 07:40:19;;;;;;;1.10;1.00;;;;;;;15.26;nan;61089.38;5032555;28;20642;-65
2023/10/12 07:42:48;;;;;;;0.90;0.90;;;;;;;15.34;nan;61193.63;5031742;28;20456;-64
2023/10/12 07:45:17;;;;;;;0.90;0.90;;;;;;;15.38;nan;61102.91;5032110;28;20179;-64
2023/10/12 07:47:46;;;;;;;1.30;1.20;;;;;;;15.59;nan;61247.03;5032851;28;20172;-65
2023/10/12 07:50:15;;;;;;;1.42;1.33;;;;;;;15.85;nan;61191.41;5032537;28;20175;-64
2023/10/12 07:52:46;;;;;;;1.48;1.30;;;;;;;16.04;nan;61204.00;5032067;28;20171;-63
2023/10/12 07:55:13;;;;;;;3.15;1.00;;;;;;;16.02;nan;61315.09;5031771;28;20156;-63
2023/10/12 07:57:41;;;;;;;0.90;0.90;;;;;;;16.23;nan;61197.09;5031685;28;20537;-65
2023/10/12 08:13:26;;;;;;;1.00;0.98;;;;;;;15.98;nan;61197.22;5031957;28;20222;-64
2023/10/12 08:15:58;;;;;;;1.33;1.23;;;;;;;16.34;nan;61377.63;5031889;28;20178;-64
2023/10/12 08:24:23;;;;;;;1.05;1.02;;;;;;;16.61;nan;61270.94;5032018;28;20589;-64
2023/10/12 08:26:49;;;;;;;1.00;1.00;;;;;;;16.46;nan;61250.84;5031978;28;20212;-64
2023/10/12 08:37:17;;;;;;;1.10;0.98;;;;;;;16.98;nan;61232.16;5031756;28;20187;-64
2023/10/12 08:39:52;;;;;;;1.15;0.95;;;;;;;17.09;nan;61544.00;5031865;28;20193;-66
2023/10/12 08:44:58;;;;;;;0.80;0.80;;;;;;;17.13;nan;61336.88;5031767;28;20164;-64
2023/10/12 08:50:05;;;;;;;1.30;1.02;;;;;;;17.72;nan;61376.59;5031523;28;20164;-65
2023/10/12 08:52:35;;;;;;;1.02;0.90;;;;;;;17.75;nan;61385.19;5031408;28;20541;-64
2023/10/12 08:55:11;;;;;;;3.17;1.35;;;;;;;17.91;nan;61361.91;5031929;28;20202;-65
2023/10/12 08:57:43;;;;;;;1.17;1.05;;;;;;;18.05;nan;61656.38;5031636;28;20206;-64
2023/10/12 09:00:39;;;;;;;1.00;0.95;;;;;;;18.06;nan;61402.13;5031921;28;20591;-64
2023/10/12 09:03:13;;;;;;;0.73;0.73;;;;;;;18.21;nan;61467.66;5031831;28;20167;-64
2023/10/12 09:05:40;;;;;;;0.90;0.90;;;;;;;17.94;nan;61391.13;5031628;28;20182;-66
2023/10/12 09:13:36;;;;;;;1.05;1.05;;;;;;;18.25;nan;61428.22;5031259;28;20296;-64
2023/10/12 09:16:09;;;;;;;1.30;1.10;;;;;;;18.37;nan;61532.31;5032041;28;20653;-64
2023/10/12 09:18:46;;;;;;;0.70;0.60;;;;;;;18.64;nan;61473.81;5030830;28;20631;-64
2023/10/12 09:24:05;;;;;;;0.90;0.90;;;;;;;18.86;nan;61631.31;5031250;28;20171;-65
2023/10/12 09:26:33;;;;;;;0.80;0.80;;;;;;;19.09;nan;61529.38;5030923;28;20846;-64
2023/10/12 09:36:29;;;;;;;0.80;0.60;;;;;;;18.70;nan;61582.09;5034123;28;20182;-65
2023/10/12 09:38:57;;;;;;;1.02;1.00;;;;;;;18.88;nan;61509.31;5033919;28;20168;-65
2023/10/12 09:41:28;;;;;;;0.88;0.88;;;;;;;19.11;nan;61664.25;5033864;28;20163;-64
2023/10/12 09:43:56;;;;;;;0.90;0.90;;;;;;;18.76;nan;61622.56;5034210;28;20163;-64
2023/10/12 09:46:27;;;;;;;0.95;0.93;;;;;;;18.82;nan;61734.94;5034146;28;20185;-64
2023/10/12 09:49:21;;;;;;;0.93;0.82;;;;;;;19.17;nan;61549.34;5033660;28;20595;-64
2023/10/12 09:51:45;;;;;;;0.63;0.63;;;;;;;19.47;nan;61517.44;5033556;28;20543;-65
2023/10/12 09:54:18;;;;;;;0.80;0.80;;;;;;;19.49;nan;61572.09;5033783;28;20701;-64
2023/10/12 09:56:57;;;;;;;0.75;0.75;;;;;;;19.64;nan;61622.22;5033875;28;20218;-64
2023/10/12 09:59:23;;;;;;;1.15;1.10;;;;;;;19.46;nan;61565.53;5033730;28;20194;-64
2023/10/12 10:01:49;;;;;;;3.95;1.25;;;;;;;19.82;nan;61611.50;5033932;28;20184;-64
2023/10/12 10:07:15;;;;;;;1.15;0.90;;;;;;;19.59;nan;61707.81;5033957;28;20232;-64
2023/10/12 10:09:48;;;;;;;1.38;0.90;;;;;;;19.62;nan;61625.13;5028046;28;20206;-65
2023/10/12 10:12:18;;;;;;;0.70;0.70;;;;;;;19.60;nan;61672.09;5033859;28;20226;-65
2023/10/12 10:14:46;;;;;;;0.88;0.73;;;;;;;19.76;nan;61744.69;5033431;28;20528;-63
2023/10/12 10:17:15;;;;;;;2.25;1.98;;;;;;;20.03;nan;61582.84;5032482;28;20272;-63
2023/10/12 10:19:43;;;;;;;1.02;0.90;;;;;;;20.20;nan;61638.44;5033632;28;20175;-64
2023/10/12 10:22:14;;;;;;;1.30;1.00;;;;;;;20.16;nan;61624.06;5033819;28;20207;-62
2023/10/12 10:24:46;;;;;;;1.00;1.00;;;;;;;20.31;nan;61728.75;5032363;28;20229;-64
2023/10/12 10:27:15;;;;;;;1.00;1.00;;;;;;;20.28;nan;61629.34;5032956;28;20617;-64
2023/10/12 10:29:57;;;;;;;10.90;1.15;;;;;;;20.08;nan;61676.69;5033703;28;20184;-63
2023/10/12 10:32:29;;;;;;;0.80;0.80;;;;;;;20.06;nan;61713.34;5033386;28;20330;-64
2023/10/12 10:34:57;;;;;;;1.35;1.08;;;;;;;19.84;nan;61619.50;5033288;28;20214;-64
2023/10/12 10:37:58;;;;;;;0.65;0.65;;;;;;;19.96;nan;61663.66;5033038;28;20171;-64
2023/10/12 10:40:43;;;;;;;1.85;0.90;;;;;;;20.12;nan;61743.50;5033512;28;20564;-64
2023/10/12 10:43:14;;;;;;;1.15;1.05;;;;;;;20.18;nan;61734.75;5032844;28;20272;-64
2023/10/12 10:45:41;;;;;;;1.13;1.02;;;;;;;20.33;nan;61696.72;5033298;28;20170;-65
2023/10/12 10:48:07;;;;;;;1.15;1.00;;;;;;;20.45;nan;61666.22;5032719;28;20170;-64
2023/10/12 10:50:40;;;;;;;0.88;0.88;;;;;;;20.49;nan;61779.75;5032851;28;20159;-64
2023/10/12 10:53:08;;;;;;;1.77;1.25;;;;;;;20.50;nan;61799.06;5032710;28;20716;-62
2023/10/12 10:55:35;;;;;;;1.40;1.05;;;;;;;20.22;nan;61781.38;5032778;28;20167;-64
2023/10/12 10:58:01;;;;;;;1.48;0.98;;;;;;;20.17;nan;61744.56;5032911;28;20182;-63
2023/10/12 11:00:45;;;;;;;1.02;1.02;;;;;;;20.19;nan;61798.72;5032154;28;20258;-64
2023/10/12 11:03:17;;;;;;;0.98;0.95;;;;;;;19.98;nan;61598.50;5032916;28;20187;-64
2023/10/12 11:05:46;;;;;;;1.10;0.88;;;;;;;20.11;nan;61765.72;5032733;28;20218;-65
2023/10/12 11:08:26;;;;;;;0.80;0.80;;;;;;;20.05;nan;61725.75;5032815;28;20183;-64
2023/10/12 11:13:38;;;;;;;1.67;1.45;;;;;;;20.23;nan;61683.91;5032479;28;20286;-62
2023/10/12 11:16:28;;;;;;;2.85;1.40;;;;;;;19.94;nan;61583.03;5032407;28;20190;-64
2023/10/12 11:18:54;;;;;;;1.50;1.08;;;;;;;20.23;nan;61685.94;5032002;28;20191;-65
2023/10/12 11:21:21;;;;;;;1.27;1.10;;;;;;;20.32;nan;61796.78;5032361;28;20168;-63
2023/10/12 11:23:46;;;;;;;1.60;1.50;;;;;;;20.48;nan;61729.31;5032682;28;20237;-65
2023/10/12 11:26:21;;;;;;;1.60;1.33;;;;;;;20.28;nan;61631.94;5032268;28;20645;-64
2023/10/12 11:29:06;;;;;;;1.13;1.00;;;;;;;20.23;nan;61709.28;5032526;28;20175;-64
2023/10/12 11:31:36;;;;;;;0.82;0.82;;;;;;;20.53;nan;61706.44;5032743;28;20232;-63
2023/10/12 11:34:11;;;;;;;1.13;1.00;;;;;;;20.57;nan;61858.97;5032071;28;20686;-64
2023/10/12 11:36:37;;;;;;;0.95;0.77;;;;;;;20.87;nan;61674.31;5032040;28;20629;-64
2023/10/12 11:39:13;;;;;;;0.68;0.68;;;;;;;20.90;nan;61721.88;5031923;28;20197;-64
2023/10/12 11:41:38;;;;;;;2.08;1.42;;;;;;;20.89;nan;61788.28;5032010;28;20170;-63
2023/10/12 11:44:07;;;;;;;1.25;1.02;;;;;;;20.93;nan;61829.19;5032337;28;20539;-64
2023/10/12 11:46:45;;;;;;;1.05;1.00;;;;;;;20.94;nan;61726.41;5031700;28;20277;-64
2023/10/12 11:49:11;;;;;;;1.33;0.80;;;;;;;21.11;nan;61756.66;5031987;28;20171;-63
2023/10/12 11:51:40;;;;;;;1.58;1.00;;;;;;;20.89;nan;61695.34;5032240;28;20229;-64
2023/10/12 11:54:08;;;;;;;0.75;0.75;;;;;;;21.14;nan;61756.91;5031645;28;20210;-64
2023/10/12 11:56:44;;;;;;;0.80;0.80;;;;;;;20.71;nan;61838.53;5030945;28;20663;-65
2023/10/12 11:59:19;;;;;;;1.13;0.90;;;;;;;20.75;nan;61804.09;5030308;28;20175;-67
2023/10/12 12:01:44;;;;;;;3.95;1.90;;;;;;;20.90;nan;61877.72;5031905;28;20192;-65
2023/10/12 12:04:15;;;;;;;1.05;1.00;;;;;;;20.83;nan;61693.72;5031755;28;20183;-64
2023/10/12 12:06:42;;;;;;;0.80;0.80;;;;;;;20.96;nan;61716.25;5031799;28;20247;-64
2023/10/12 12:09:08;;;;;;;0.75;0.75;;;;;;;20.95;nan;61699.53;5031676;28;20182;-64
2023/10/12 12:11:37;;;;;;;0.77;0.75;;;;;;;21.20;nan;61804.72;5031095;28;20219;-65
2023/10/12 12:14:06;;;;;;;0.98;0.88;;;;;;;21.23;nan;61925.66;5031582;28;20221;-63
2023/10/12 12:16:34;;;;;;;0.82;0.70;;;;;;;21.54;nan;61911.53;5031033;28;20195;-65
2023/10/12 12:19:00;;;;;;;0.77;0.73;;;;;;;21.58;nan;61754.84;5031450;28;20236;-64
2023/10/12 12:21:29;;;;;;;2.92;1.38;;;;;;;21.85;nan;61792.72;5031472;28;20179;-64
2023/10/12 12:26:46;;;;;;;0.77;0.77;;;;;;;21.53;nan;61834.41;5031363;28;20186;-65
2023/10/12 12:29:11;;;;;;;1.25;1.00;;;;;;;21.28;nan;61754.03;5031578;28;20179;-64
2023/10/12 12:31:40;;;;;;;1.10;1.00;;;;;;;21.34;nan;62029.16;5031502;28;20180;-64
2023/10/12 12:34:06;;;;;;;0.93;0.90;;;;;;;21.35;nan;62027.13;5031443;28;20246;-64
2023/10/12 12:36:32;;;;;;;0.80;0.80;;;;;;;21.30;nan;61905.03;5030982;28;20175;-64
2023/10/12 12:38:59;;;;;;;0.95;0.95;;;;;;;21.17;nan;61866.88;5030707;28;20211;-64
2023/10/12 12:41:25;;;;;;;1.40;1.30;;;;;;;21.40;nan;61915.84;5031468;28;20167;-64
2023/10/12 12:43:51;;;;;;;0.70;0.70;;;;;;;21.56;nan;61859.19;5031273;28;20167;-64
2023/10/12 12:46:18;;;;;;;3.90;1.02;;;;;;;21.59;nan;61859.97;5031442;28;20244;-63
2023/10/12 12:48:48;;;;;;;1.15;1.10;;;;;;;21.24;nan;61802.03;5031064;28;20164;-63
2023/10/12 12:51:17;;;;;;;0.70;0.70;;;;;;;21.33;nan;61850.69;5031345;28;20183;-64
2023/10/12 12:53:47;;;;;;;0.70;0.70;;;;;;;21.31;nan;61770.44;5031250;28;20199;-63
2023/10/12 12:56:18;;;;;;;0.90;0.90;;;;;;;21.47;nan;61897.78;5031197;28;20175;-63
2023/10/12 12:58:47;;;;;;;0.75;0.70;;;;;;;21.58;nan;61858.28;5031265;28;20266;-64
2023/10/12 13:01:18;;;;;;;0.73;0.73;;;;;;;21.53;nan;61876.00;5031374;28;20175;-64
2023/10/12 13:03:46;;;;;;;1.10;1.05;;;;;;;21.79;nan;61887.34;5031681;28;20602;-63
2023/10/12 13:06:14;;;;;;;1.13;1.00;;;;;;;21.58;nan;61951.91;5031853;28;20564;-63
2023/10/12 13:08:40;;;;;;;1.00;1.00;;;;;;;21.65;nan;61887.03;5035097;28;20172;-64
2023/10/12 13:11:06;;;;;;;0.95;0.85;;;;;;;21.36;nan;61789.69;5034840;28;20562;-63
2023/10/12 13:13:33;;;;;;;0.90;0.90;;;;;;;21.28;nan;61736.41;5035229;28;20211;-64
2023/10/12 13:16:05;;;;;;;0.95;0.80;;;;;;;21.50;nan;61826.34;5034817;28;20562;-62
2023/10/12 13:18:33;;;;;;;1.08;0.98;;;;;;;21.63;nan;61871.78;5034769;28;20184;-63
2023/10/12 13:21:00;;;;;;;0.90;0.90;;;;;;;21.57;nan;61812.94;5034422;28;20168;-64
2023/10/12 13:23:26;;;;;;;2.22;1.55;;;;;;;21.71;nan;61862.66;5034299;28;20190;-65
2023/10/12 13:25:52;;;;;;;0.90;0.80;;;;;;;21.55;nan;61763.88;5034535;28;20265;-64
2023/10/12 13:28:18;;;;;;;1.25;1.15;;;;;;;21.71;nan;61800.22;5034628;28;20249;-65
2023/10/12 13:30:44;;;;;;;1.05;1.02;;;;;;;21.57;nan;61760.94;5034483;28;20229;-64
2023/10/12 13:33:11;;;;;;;2.05;0.98;;;;;;;21.79;nan;61863.94;5034821;28;20199;-64
2023/10/12 13:38:09;;;;;;;1.20;1.10;;;;;;;21.60;nan;61982.78;5034570;28;20160;-63
2023/10/12 13:40:46;;;;;;;0.90;0.90;;;;;;;21.56;nan;62092.66;5034699;28;20182;-63
2023/10/12 13:43:14;;;;;;;1.17;1.00;;;;;;;21.34;nan;61816.00;5034099;28;20194;-64
2023/10/12 13:45:50;;;;;;;1.02;0.90;;;;;;;21.03;nan;61763.16;5034280;28;20201;-64
2023/10/12 13:48:17;;;;;;;1.30;1.20;;;;;;;21.39;nan;61928.25;5034080;28;20178;-64
2023/10/12 13:50:47;;;;;;;1.38;1.23;;;;;;;21.38;nan;61843.38;5034252;28;20194;-63
2023/10/12 13:53:15;;;;;;;1.30;0.95;;;;;;;21.22;nan;61804.41;5034101;28;20682;-64
2023/10/12 13:55:41;;;;;;;0.85;0.85;;;;;;;21.29;nan;61942.31;5034265;28;20626;-63
2023/10/12 13:58:06;;;;;;;0.98;0.88;;;;;;;21.22;nan;61786.78;5034103;28;20175;-65
2023/10/12 14:00:34;;;;;;;2.05;1.20;;;;;;;21.15;nan;61789.78;5033906;28;20293;-64
2023/10/12 14:03:10;;;;;;;1.65;1.38;;;;;;;21.35;nan;61839.97;5034023;28;20170;-64
2023/10/12 14:05:40;;;;;;;0.88;0.88;;;;;;;21.09;nan;61803.75;5033899;28;20170;-66
2023/10/12 14:08:08;;;;;;;0.95;0.80;;;;;;;21.11;nan;61880.81;5033564;28;20210;-64
2023/10/12 14:10:41;;;;;;;0.80;0.80;;;;;;;21.07;nan;62021.75;5033502;28;20549;-65
2023/10/12 14:13:07;;;;;;;1.13;1.02;;;;;;;21.13;nan;61753.72;5033637;28;20227;-65
2023/10/12 14:15:35;;;;;;;1.00;0.82;;;;;;;20.96;nan;61843.53;5033594;28;20539;-64
2023/10/12 14:18:02;;;;;;;1.00;1.00;;;;;;;20.97;nan;61698.63;5031871;28;20170;-64
2023/10/12 14:20:28;;;;;;;0.98;0.98;;;;;;;20.93;nan;61731.03;5033556;28;20674;-63
2023/10/12 14:22:57;;;;;;;1.20;1.10;;;;;;;21.01;nan;61900.59;5033503;28;20638;-65
2023/10/12 14:25:28;;;;;;;1.25;1.10;;;;;;;20.91;nan;61761.97;5033747;28;20198;-63
2023/10/12 14:28:00;;;;;;;1.15;0.88;;;;;;;20.97;nan;61766.75;5033590;28;20156;-64